This is the latest recevied weather packets stored in our database for station/object JF1AJE-13. If no packets are shown the sender has not sent any weather packets the latest 10 day(s).
| Time | Temp. | Humidity | Pressure | Rain* | Wind** | Luminosity | Snow |
|---|---|---|---|---|---|---|---|
| 1777744324 | 15° C | 60% | 1007.2 hPa | 0 mm | - | - | - |
| 1777743122 | 14.44° C | 60% | 1007.5 hPa | 0 mm | - | - | - |
| 1777741922 | 14.44° C | 60% | 1007.4 hPa | 0 mm | - | - | - |
| 1777740722 | 14.44° C | 61% | 1007.5 hPa | 0 mm | - | - | - |
| 1777739521 | 14.44° C | 60% | 1007.5 hPa | 0 mm | - | - | - |
| 1777738322 | 14.44° C | 59% | 1007.4 hPa | 0 mm | - | - | - |
| 1777737123 | 14.44° C | 58% | 1007.7 hPa | 0 mm | - | - | - |
| 1777735921 | 15° C | 57% | 1007.7 hPa | 0 mm | - | - | - |
| 1777734722 | 15° C | 56% | 1007.7 hPa | 0 mm | - | - | - |
| 1777733523 | 15.56° C | 54% | 1007.6 hPa | 0 mm | - | - | - |
| 1777732325 | 15.56° C | 53% | 1007.6 hPa | 0 mm | - | - | - |
| 1777731121 | 16.67° C | 51% | 1007.6 hPa | 0 mm | - | - | - |
| 1777729933 | 16.67° C | 50% | 1007.5 hPa | 0 mm | - | - | - |
| 1777728723 | 17.22° C | 51% | 1007.5 hPa | 0 mm | - | - | - |
| 1777727522 | 17.78° C | 51% | 1007.2 hPa | 0 mm | - | - | - |
| 1777726322 | 17.78° C | 50% | 1007.2 hPa | 0 mm | - | - | - |
| 1777725123 | 18.33° C | 47% | 1006.9 hPa | 0 mm | - | - | - |
| 1777723922 | 18.33° C | 45% | 1006.7 hPa | 0 mm | - | - | - |
| 1777722722 | 18.89° C | 44% | 1006.4 hPa | 0 mm | - | - | - |
| 1777721526 | 19.44° C | 44% | 1006.3 hPa | 0 mm | - | - | - |
| 1777720323 | 20.56° C | 41% | 1005.8 hPa | 0 mm | - | - | - |
| 1777719121 | 21.11° C | 37% | 1005.6 hPa | 0 mm | - | - | - |
| 1777717921 | 21.67° C | 30% | 1005.1 hPa | 0 mm | - | - | - |
| 1777716721 | 22.78° C | 27% | 1004.9 hPa | 0 mm | - | - | - |
| 1777715522 | 23.33° C | 24% | 1004.7 hPa | 0 mm | - | - | - |
* Rain latest hour (hover to see other rain measurements)
** Current wind speed in m/s (hover to see current wind gust speed)